createdAt,value
2023-02-26T00:01:52.763Z,99.90
2023-02-26T00:04:21.495Z,99.90
2023-02-26T00:06:59.586Z,99.90
2023-02-26T00:09:30.145Z,99.90
2023-02-26T00:11:59.770Z,99.90
2023-02-26T00:14:29.374Z,99.90
2023-02-26T00:17:30.336Z,99.90
2023-02-26T00:19:59.700Z,99.90
2023-02-26T00:22:28.970Z,99.90
2023-02-26T00:24:58.857Z,99.90
2023-02-26T00:27:27.407Z,99.90
2023-02-26T00:29:56.636Z,99.90
2023-02-26T00:32:25.987Z,99.90
2023-02-26T00:34:55.515Z,99.90
2023-02-26T00:37:57.352Z,99.90
2023-02-26T00:40:41.927Z,99.90
2023-02-26T00:43:16.813Z,99.90
2023-02-26T00:45:57.550Z,99.90
2023-02-26T00:48:48.877Z,99.90
2023-02-26T00:51:29.233Z,99.90
2023-02-26T00:54:09.675Z,99.90
2023-02-26T00:56:39.589Z,99.90
2023-02-26T00:59:07.997Z,99.90
2023-02-26T01:01:36.603Z,99.90
2023-02-26T01:04:25.820Z,99.90
2023-02-26T01:06:58.362Z,99.90
2023-02-26T01:09:29.899Z,99.90
2023-02-26T01:12:03.652Z,99.90
2023-02-26T01:14:33.892Z,99.90
2023-02-26T01:17:12.509Z,99.90
2023-02-26T01:19:49.643Z,99.90
2023-02-26T01:22:24.676Z,99.90
2023-02-26T01:25:05.166Z,99.90
2023-02-26T01:27:44.831Z,99.90
2023-02-26T01:30:14.552Z,99.90
2023-02-26T01:32:49.637Z,99.90
2023-02-26T01:35:38.805Z,99.80
2023-02-26T01:38:21.764Z,99.90
2023-02-26T01:41:30.203Z,99.50
2023-02-26T01:44:10.853Z,98.80
2023-02-26T01:47:16.189Z,97.80
2023-02-26T01:49:46.733Z,96.90
2023-02-26T01:53:06.007Z,97.30
2023-02-26T01:55:34.508Z,95.70
2023-02-26T01:58:04.334Z,95.20
2023-02-26T02:00:34.495Z,95.40
2023-02-26T02:03:03.388Z,95.60
2023-02-26T02:06:02.009Z,95.70
2023-02-26T02:08:33.584Z,95.80
2023-02-26T02:11:02.731Z,95.00
2023-02-26T02:13:48.135Z,94.60
2023-02-26T02:16:33.200Z,94.20
2023-02-26T02:19:24.935Z,94.30
2023-02-26T02:22:15.915Z,93.90
2023-02-26T02:25:09.663Z,94.30
2023-02-26T02:27:53.247Z,94.50
2023-02-26T02:30:56.049Z,94.00
2023-02-26T02:33:35.708Z,93.30
2023-02-26T02:36:13.942Z,93.00
2023-02-26T02:38:52.108Z,92.90
2023-02-26T02:41:28.429Z,91.90
2023-02-26T02:44:01.158Z,91.40
2023-02-26T02:46:34.992Z,90.60
2023-02-26T02:49:10.057Z,90.60
2023-02-26T02:51:46.273Z,90.70
2023-02-26T02:54:21.529Z,90.20
2023-02-26T02:56:57.562Z,89.80
2023-02-26T02:59:42.318Z,89.90
2023-02-26T03:02:19.506Z,89.90
2023-02-26T03:04:50.023Z,89.30
2023-02-26T03:07:18.692Z,88.70
2023-02-26T03:09:47.945Z,89.40
2023-02-26T03:12:16.979Z,88.60
2023-02-26T03:14:45.652Z,86.80
2023-02-26T03:17:51.172Z,86.10
2023-02-26T03:20:29.583Z,85.60
2023-02-26T03:23:10.816Z,83.20
2023-02-26T03:25:49.806Z,83.20
2023-02-26T03:28:29.685Z,83.20
2023-02-26T03:31:07.139Z,81.80
2023-02-26T03:33:46.754Z,80.90
2023-02-26T03:36:26.233Z,80.70
2023-02-26T03:39:04.021Z,80.70
2023-02-26T03:41:40.269Z,81.30
2023-02-26T03:44:14.956Z,80.70
2023-02-26T03:46:49.889Z,80.00
2023-02-26T03:49:28.602Z,80.30
2023-02-26T03:52:00.968Z,79.40
2023-02-26T03:54:36.750Z,80.20
2023-02-26T03:57:05.569Z,78.70
2023-02-26T03:59:45.400Z,78.10
2023-02-26T04:02:19.773Z,77.40
2023-02-26T04:04:55.441Z,77.10
2023-02-26T04:07:25.759Z,77.20
2023-02-26T04:09:54.821Z,77.70
2023-02-26T04:12:25.299Z,78.00
2023-02-26T04:14:53.970Z,78.10
2023-02-26T04:17:22.421Z,78.50
2023-02-26T04:19:50.942Z,78.90
2023-02-26T04:22:19.569Z,79.80
2023-02-26T04:24:49.450Z,79.90
2023-02-26T04:27:17.936Z,80.50
2023-02-26T04:29:46.455Z,81.10
2023-02-26T04:32:15.032Z,81.60
2023-02-26T04:34:43.679Z,81.60
2023-02-26T04:37:12.195Z,82.30
2023-02-26T04:39:40.752Z,83.30
2023-02-26T04:42:10.562Z,82.60
2023-02-26T04:44:39.141Z,82.10
2023-02-26T04:47:07.607Z,82.30
2023-02-26T04:49:36.084Z,81.60
2023-02-26T04:52:04.765Z,80.50
2023-02-26T04:55:22.957Z,79.70
2023-02-26T04:57:52.899Z,79.30
2023-02-26T05:00:21.754Z,78.90
2023-02-26T05:02:50.268Z,79.40
2023-02-26T05:05:19.024Z,79.60
2023-02-26T05:07:47.445Z,79.70
2023-02-26T05:10:16.038Z,79.90
2023-02-26T05:12:44.508Z,79.80
2023-02-26T05:15:39.753Z,79.70
2023-02-26T05:18:08.185Z,78.40
2023-02-26T05:20:36.850Z,78.20
2023-02-26T05:23:05.688Z,76.10
2023-02-26T05:25:34.226Z,75.80
2023-02-26T05:28:02.822Z,75.80
2023-02-26T05:30:31.301Z,75.70
2023-02-26T05:33:01.219Z,76.70
2023-02-26T05:35:29.750Z,75.90
2023-02-26T05:37:58.305Z,77.00
2023-02-26T05:40:26.763Z,77.10
2023-02-26T05:42:55.268Z,77.40
2023-02-26T05:45:23.764Z,77.10
2023-02-26T05:47:57.285Z,77.80
2023-02-26T05:50:27.332Z,78.60
2023-02-26T05:52:55.811Z,78.80
2023-02-26T05:55:24.538Z,78.90
2023-02-26T05:57:53.371Z,79.30
2023-02-26T06:00:22.544Z,78.90
2023-02-26T06:02:51.357Z,78.20
2023-02-26T06:05:20.042Z,78.10
2023-02-26T06:07:49.981Z,77.40
2023-02-26T06:10:18.827Z,76.60
2023-02-26T06:12:47.293Z,76.60
2023-02-26T06:15:41.159Z,76.10
2023-02-26T06:18:12.515Z,75.80
2023-02-26T06:20:40.982Z,73.20
2023-02-26T06:23:10.869Z,72.90
2023-02-26T06:25:39.271Z,72.50
2023-02-26T06:28:07.796Z,70.50
2023-02-26T06:30:38.393Z,69.70
2023-02-26T06:33:06.906Z,71.00
2023-02-26T06:35:35.307Z,70.70
2023-02-26T06:38:03.890Z,69.30
2023-02-26T06:40:33.841Z,68.60
2023-02-26T06:43:02.298Z,67.40
2023-02-26T06:45:30.953Z,67.80
2023-02-26T06:47:59.563Z,66.20
2023-02-26T06:50:28.105Z,65.60
2023-02-26T06:52:56.877Z,65.60
2023-02-26T06:55:27.019Z,64.80
2023-02-26T06:58:43.414Z,63.80
2023-02-26T07:01:11.980Z,63.80
2023-02-26T07:03:40.611Z,63.10
2023-02-26T07:06:26.453Z,62.10
2023-02-26T07:08:59.703Z,62.20
2023-02-26T07:11:28.546Z,62.30
2023-02-26T07:13:58.444Z,61.80
2023-02-26T07:16:27.331Z,62.00
2023-02-26T07:18:56.052Z,62.20
2023-02-26T07:21:24.618Z,62.30
2023-02-26T07:23:53.128Z,62.60
2023-02-26T07:26:21.799Z,62.80
2023-02-26T07:28:50.208Z,62.40
2023-02-26T07:31:20.169Z,62.20
2023-02-26T07:33:48.764Z,62.60
2023-02-26T07:36:17.301Z,63.20
2023-02-26T07:38:45.722Z,63.70
2023-02-26T07:41:14.168Z,64.20
2023-02-26T07:43:42.927Z,64.30
2023-02-26T07:46:11.507Z,64.30
2023-02-26T07:48:42.103Z,63.50
2023-02-26T07:51:11.152Z,64.80
2023-02-26T07:53:39.758Z,63.30
2023-02-26T07:56:08.181Z,63.30
2023-02-26T07:58:36.668Z,63.50
2023-02-26T08:01:05.560Z,63.60
2023-02-26T08:03:34.419Z,62.90
2023-02-26T08:06:05.325Z,63.20
2023-02-26T08:08:34.326Z,62.40
2023-02-26T08:11:03.372Z,62.10
2023-02-26T08:13:32.463Z,61.70
2023-02-26T08:16:00.991Z,61.60
2023-02-26T08:18:29.493Z,61.70
2023-02-26T08:20:58.080Z,61.20
2023-02-26T08:23:52.616Z,60.50
2023-02-26T08:26:21.198Z,60.40
2023-02-26T08:28:50.201Z,60.40
2023-02-26T08:31:19.267Z,59.80
2023-02-26T08:33:48.078Z,60.50
2023-02-26T08:36:16.518Z,60.00
2023-02-26T08:38:45.062Z,59.40
2023-02-26T08:41:14.999Z,59.00
2023-02-26T08:43:43.476Z,58.20
2023-02-26T08:46:12.156Z,58.10
2023-02-26T08:48:49.790Z,58.60
2023-02-26T08:51:18.912Z,58.60
2023-02-26T08:53:47.662Z,58.30
2023-02-26T08:56:18.475Z,57.80
2023-02-26T08:58:47.001Z,58.00
2023-02-26T09:01:18.362Z,57.90
2023-02-26T09:03:46.833Z,58.00
2023-02-26T09:06:40.262Z,57.80
2023-02-26T09:09:08.759Z,57.40
2023-02-26T09:11:38.841Z,57.70
2023-02-26T09:14:07.656Z,57.90
2023-02-26T09:16:36.994Z,57.50
2023-02-26T09:19:07.412Z,57.30
2023-02-26T09:21:36.720Z,57.20
2023-02-26T09:24:05.555Z,56.60
2023-02-26T09:26:34.042Z,56.40
2023-02-26T09:29:04.346Z,56.00
2023-02-26T09:31:34.009Z,55.80
2023-02-26T09:34:02.713Z,55.30
2023-02-26T09:36:31.507Z,54.80
2023-02-26T09:39:00.791Z,54.20
2023-02-26T09:41:34.157Z,54.20
2023-02-26T09:44:21.661Z,54.00
2023-02-26T09:47:03.434Z,54.50
2023-02-26T09:49:50.415Z,54.00
2023-02-26T09:52:26.954Z,53.70
2023-02-26T09:55:01.409Z,54.00
2023-02-26T09:57:34.142Z,54.50
2023-02-26T10:00:15.589Z,54.30
2023-02-26T10:03:00.815Z,54.20
2023-02-26T10:05:42.125Z,54.50
2023-02-26T10:08:18.528Z,55.00
2023-02-26T10:10:56.098Z,55.10
2023-02-26T10:13:38.489Z,55.30
2023-02-26T10:16:20.158Z,55.40
2023-02-26T10:18:56.542Z,55.00
2023-02-26T10:21:32.727Z,55.10
2023-02-26T10:24:08.357Z,55.40
2023-02-26T10:26:42.534Z,55.70
2023-02-26T10:29:24.686Z,55.70
2023-02-26T10:32:12.070Z,55.40
2023-02-26T10:34:52.387Z,55.90
2023-02-26T10:37:29.762Z,55.60
2023-02-26T10:40:10.818Z,56.60
2023-02-26T10:42:44.403Z,56.40
2023-02-26T10:45:30.186Z,56.60
2023-02-26T10:48:19.606Z,56.30
2023-02-26T10:50:53.426Z,56.00
2023-02-26T10:53:23.615Z,56.80
2023-02-26T10:56:01.278Z,57.00
2023-02-26T10:58:29.811Z,57.50
2023-02-26T11:00:58.770Z,58.00
2023-02-26T11:03:35.705Z,58.40
2023-02-26T11:06:06.909Z,58.70
2023-02-26T11:08:41.714Z,59.10
2023-02-26T11:11:11.065Z,59.10
2023-02-26T11:13:40.706Z,59.10
2023-02-26T11:16:16.674Z,59.60
2023-02-26T11:18:55.109Z,59.70
2023-02-26T11:21:28.151Z,59.80
2023-02-26T11:24:03.634Z,59.90
2023-02-26T11:26:37.008Z,60.20
2023-02-26T11:29:07.386Z,60.90
2023-02-26T11:31:35.979Z,61.30
2023-02-26T11:34:11.996Z,61.30
2023-02-26T11:36:45.798Z,62.10
2023-02-26T11:52:28.979Z,61.40
2023-02-26T11:55:03.570Z,64.70
2023-02-26T11:57:34.600Z,65.50
2023-02-26T12:00:20.379Z,65.80
2023-02-26T12:02:49.508Z,65.90
2023-02-26T12:05:20.298Z,66.10
2023-02-26T12:08:20.596Z,66.70
2023-02-26T12:11:17.505Z,67.70
2023-02-26T12:14:06.361Z,67.30
2023-02-26T12:16:53.435Z,67.40
2023-02-26T12:19:42.994Z,68.00
2023-02-26T12:22:54.999Z,68.30
2023-02-26T12:25:56.036Z,67.50
2023-02-26T12:28:51.874Z,67.80
2023-02-26T12:32:05.048Z,67.20
2023-02-26T12:35:23.872Z,67.40
2023-02-26T12:38:09.383Z,65.40
2023-02-26T12:41:26.326Z,63.60
2023-02-26T12:43:58.128Z,62.90
2023-02-26T12:46:50.366Z,62.80
2023-02-26T12:50:40.887Z,62.30
2023-02-26T12:53:56.593Z,61.70
2023-02-26T14:12:02.021Z,62.30
2023-02-26T14:14:42.213Z,61.80
2023-02-26T14:17:39.181Z,61.70
2023-02-26T14:20:35.616Z,62.30
2023-02-26T14:23:36.130Z,62.50
2023-02-26T14:26:19.096Z,62.90
2023-02-26T14:28:58.674Z,63.50
2023-02-26T14:31:28.414Z,65.10
2023-02-26T14:34:14.827Z,65.20
2023-02-26T14:36:49.820Z,65.40
2023-02-26T14:39:29.516Z,66.00
2023-02-26T14:42:04.979Z,66.30
2023-02-26T14:44:40.367Z,66.70
2023-02-26T14:47:10.600Z,66.70
2023-02-26T14:49:42.621Z,66.90
2023-02-26T14:52:57.585Z,67.70
2023-02-26T14:56:05.835Z,68.00
2023-02-26T14:59:12.923Z,68.60
2023-02-26T15:01:53.059Z,69.20
2023-02-26T15:04:57.117Z,69.40
2023-02-26T15:07:50.025Z,70.90
2023-02-26T15:10:36.244Z,71.90
2023-02-26T15:13:30.240Z,72.50
2023-02-26T15:16:46.842Z,73.00
2023-02-26T15:19:39.566Z,74.10
2023-02-26T15:22:34.256Z,76.20
2023-02-26T15:25:03.473Z,77.40
2023-02-26T15:27:34.811Z,78.80
2023-02-26T15:30:06.596Z,79.80
2023-02-26T15:32:41.255Z,80.60
2023-02-26T15:35:20.086Z,81.80
2023-02-26T15:37:51.875Z,83.30
2023-02-26T15:40:21.226Z,85.20
2023-02-26T15:42:55.549Z,87.00
2023-02-26T15:45:32.419Z,88.70
2023-02-26T15:48:05.921Z,90.00
2023-02-26T15:50:41.920Z,89.40
2023-02-26T15:53:22.702Z,90.30
2023-02-26T15:55:56.176Z,90.90
2023-02-26T15:58:37.287Z,91.70
2023-02-26T16:01:15.480Z,92.40
2023-02-26T16:03:44.173Z,92.60
2023-02-26T16:06:17.304Z,93.30
2023-02-26T16:08:46.139Z,93.30
2023-02-26T16:11:16.788Z,93.60
2023-02-26T16:13:46.871Z,93.80
2023-02-26T16:16:30.974Z,94.50
2023-02-26T16:19:00.102Z,94.90
2023-02-26T16:21:35.512Z,95.60
2023-02-26T16:24:10.849Z,96.40
2023-02-26T16:27:01.828Z,95.90
2023-02-26T16:29:33.152Z,95.80
2023-02-26T16:32:06.016Z,96.40
2023-02-26T16:34:41.353Z,96.60
2023-02-26T16:37:24.304Z,96.70
2023-02-26T16:40:24.082Z,96.80
2023-02-26T16:43:03.901Z,97.20
2023-02-26T16:45:51.212Z,97.40
2023-02-26T16:48:27.445Z,97.60
2023-02-26T16:51:01.994Z,97.00
2023-02-26T16:53:39.051Z,96.90
2023-02-26T16:56:07.802Z,97.00
2023-02-26T16:58:36.661Z,97.60
2023-02-26T17:01:10.421Z,97.80
2023-02-26T17:03:40.963Z,98.00
2023-02-26T17:06:14.943Z,98.20
2023-02-26T17:08:51.137Z,98.90
2023-02-26T17:11:25.897Z,99.30
2023-02-26T17:14:19.153Z,99.70
2023-02-26T17:16:48.112Z,99.90
2023-02-26T17:19:18.780Z,99.90
2023-02-26T17:21:51.543Z,99.40
2023-02-26T17:24:26.121Z,99.90
2023-02-26T17:26:55.273Z,99.90
2023-02-26T17:29:33.266Z,99.90
2023-02-26T17:32:02.478Z,99.90
2023-02-26T17:34:32.541Z,99.90
2023-02-26T17:37:05.567Z,99.90
2023-02-26T17:39:34.230Z,99.90
2023-02-26T17:42:02.739Z,99.90
2023-02-26T17:44:31.287Z,99.90
2023-02-26T17:46:59.719Z,99.90
2023-02-26T17:49:28.269Z,99.90
2023-02-26T17:52:23.230Z,99.90
2023-02-26T17:54:51.705Z,99.90
2023-02-26T17:57:22.926Z,99.90
2023-02-26T17:59:51.487Z,99.90
2023-02-26T18:02:25.532Z,99.90
2023-02-26T18:04:54.279Z,99.90
2023-02-26T18:07:26.248Z,99.90
2023-02-26T18:09:54.770Z,99.90
2023-02-26T18:12:24.217Z,99.90
2023-02-26T18:14:53.312Z,99.90
2023-02-26T18:17:27.622Z,99.90
2023-02-26T18:19:56.569Z,99.90
2023-02-26T18:22:27.755Z,99.90
2023-02-26T18:24:56.812Z,99.90
2023-02-26T18:27:27.980Z,99.90
2023-02-26T18:29:59.159Z,99.90
2023-02-26T18:32:28.289Z,99.90
2023-02-26T18:34:57.301Z,99.90
2023-02-26T18:37:29.767Z,99.90
2023-02-26T18:39:58.645Z,99.90
2023-02-26T18:42:29.078Z,99.90
2023-02-26T18:44:57.732Z,99.90
2023-02-26T18:47:26.649Z,99.90
2023-02-26T18:49:55.776Z,99.90
2023-02-26T18:52:26.772Z,99.90
2023-02-26T18:54:55.647Z,99.90
2023-02-26T18:57:49.092Z,99.90
2023-02-26T19:00:18.374Z,99.90
2023-02-26T19:02:47.624Z,99.90
2023-02-26T19:05:18.573Z,99.90
2023-02-26T19:08:18.374Z,99.90
2023-02-26T19:10:47.429Z,99.90
2023-02-26T19:13:16.085Z,99.90
2023-02-26T19:15:44.994Z,99.90
2023-02-26T19:18:13.685Z,99.90
2023-02-26T19:20:42.944Z,99.90
2023-02-26T19:23:12.127Z,99.90
2023-02-26T19:25:43.091Z,99.90
2023-02-26T19:28:11.780Z,99.90
2023-02-26T19:30:41.488Z,99.90
2023-02-26T19:33:10.112Z,99.90
2023-02-26T19:35:38.781Z,99.90
2023-02-26T19:38:07.231Z,99.90
2023-02-26T19:40:35.814Z,99.90
2023-02-26T19:43:05.892Z,99.90
2023-02-26T19:45:34.619Z,99.90
2023-02-26T19:48:03.459Z,99.90
2023-02-26T19:50:32.171Z,99.90
2023-02-26T19:53:01.048Z,99.90
2023-02-26T19:55:29.890Z,99.90
2023-02-26T19:57:58.651Z,99.90
2023-02-26T20:00:28.628Z,99.90
2023-02-26T20:02:57.137Z,99.90
2023-02-26T20:05:25.965Z,99.90
2023-02-26T20:07:56.348Z,99.90
2023-02-26T20:10:26.538Z,99.90
2023-02-26T20:12:56.113Z,99.90
2023-02-26T20:15:28.985Z,99.90
2023-02-26T20:17:57.673Z,99.90
2023-02-26T20:20:26.373Z,99.90
2023-02-26T20:22:55.214Z,99.90
2023-02-26T20:25:24.297Z,99.90
2023-02-26T20:27:53.159Z,99.90
2023-02-26T20:30:22.393Z,99.90
2023-02-26T20:32:52.598Z,99.90
2023-02-26T20:35:21.610Z,99.90
2023-02-26T20:37:53.033Z,99.90
2023-02-26T20:40:21.980Z,99.90
2023-02-26T20:42:50.650Z,99.90
2023-02-26T20:45:19.374Z,99.90
2023-02-26T20:47:47.896Z,99.90
2023-02-26T20:50:18.427Z,99.90
2023-02-26T20:52:46.904Z,99.90
2023-02-26T20:55:15.543Z,99.90
2023-02-26T20:57:44.145Z,99.90
2023-02-26T21:00:15.423Z,99.90
2023-02-26T21:02:46.084Z,99.90
2023-02-26T21:05:15.976Z,99.90
2023-02-26T21:07:46.257Z,99.90
2023-02-26T21:10:17.315Z,99.90
2023-02-26T21:12:46.005Z,99.90
2023-02-26T21:15:15.354Z,99.90
2023-02-26T21:17:44.931Z,99.90
2023-02-26T21:20:17.945Z,99.90
2023-02-26T21:22:47.957Z,99.90
2023-02-26T21:25:16.510Z,99.90
2023-02-26T21:30:28.958Z,99.90
2023-02-26T21:32:57.634Z,99.90
2023-02-26T21:35:26.102Z,99.90
2023-02-26T21:38:22.589Z,99.90
2023-02-26T21:40:51.230Z,99.90
2023-02-26T21:43:19.694Z,99.90
2023-02-26T21:45:50.411Z,99.90
2023-02-26T21:48:19.018Z,99.90
2023-02-26T21:50:48.056Z,99.90
2023-02-26T21:53:16.526Z,99.90
2023-02-26T21:55:46.480Z,99.90
2023-02-26T21:58:14.978Z,99.90
2023-02-26T22:00:43.512Z,99.90
2023-02-26T22:03:12.443Z,99.90
2023-02-26T22:05:40.844Z,99.90
2023-02-26T22:08:09.733Z,99.90
2023-02-26T22:10:38.321Z,99.90
2023-02-26T22:13:08.130Z,99.90
2023-02-26T22:15:36.583Z,99.90
2023-02-26T22:18:05.642Z,99.90
2023-02-26T22:20:34.101Z,99.90
2023-02-26T22:23:02.584Z,99.90
2023-02-26T22:25:31.183Z,99.90
2023-02-26T22:27:59.833Z,99.90
2023-02-26T22:30:29.795Z,99.90
2023-02-26T22:32:58.288Z,99.90
2023-02-26T22:35:26.700Z,99.90
2023-02-26T22:37:55.484Z,99.90
2023-02-26T22:40:26.300Z,99.90
2023-02-26T22:42:54.996Z,99.90
2023-02-26T22:45:23.531Z,99.90
2023-02-26T22:47:53.490Z,99.90
2023-02-26T22:50:23.441Z,99.90
2023-02-26T22:52:51.998Z,99.90
2023-02-26T22:55:20.772Z,99.90
2023-02-26T22:57:49.180Z,99.90
2023-02-26T23:00:20.730Z,99.90
2023-02-26T23:02:50.729Z,99.90
2023-02-26T23:05:20.830Z,99.90
2023-02-26T23:07:49.895Z,99.90
2023-02-26T23:10:21.491Z,99.90
2023-02-26T23:12:50.442Z,99.90
2023-02-26T23:15:19.045Z,99.90
2023-02-26T23:17:47.500Z,99.90
2023-02-26T23:20:17.004Z,99.90
2023-02-26T23:22:46.839Z,99.90
2023-02-26T23:25:15.369Z,99.90
2023-02-26T23:27:44.088Z,99.90
2023-02-26T23:30:14.446Z,99.90
2023-02-26T23:32:42.877Z,99.90
2023-02-26T23:35:11.858Z,99.90
2023-02-26T23:37:40.493Z,99.90
2023-02-26T23:40:14.612Z,99.90
2023-02-26T23:42:43.310Z,99.90
2023-02-26T23:45:13.160Z,99.90
2023-02-26T23:47:42.130Z,99.90
2023-02-26T23:50:12.798Z,99.90
2023-02-26T23:52:41.295Z,99.90
2023-02-26T23:55:12.624Z,99.90
2023-02-26T23:57:50.344Z,99.90
